createdAt,value
2023-09-06T00:00:47.376Z,96553.72
2023-09-06T00:03:49.805Z,96551.41
2023-09-06T00:06:53.456Z,96544.50
2023-09-06T00:09:55.245Z,96551.91
2023-09-06T00:12:57.634Z,96546.88
2023-09-06T00:16:01.484Z,96548.06
2023-09-06T00:19:04.490Z,96532.81
2023-09-06T00:22:06.896Z,96530.47
2023-09-06T00:25:09.331Z,96535.84
2023-09-06T00:28:11.697Z,96531.81
2023-09-06T00:31:13.965Z,96525.13
2023-09-06T00:34:16.501Z,96531.50
2023-09-06T00:37:18.650Z,96530.16
2023-09-06T00:40:22.723Z,96524.66
2023-09-06T00:43:24.618Z,96527.34
2023-09-06T00:46:29.635Z,96521.47
2023-09-06T00:49:33.252Z,96524.34
2023-09-06T00:52:35.868Z,96517.66
2023-09-06T00:55:38.799Z,96517.97
2023-09-06T00:58:40.527Z,96526.19
2023-09-06T01:01:42.281Z,96531.09
2023-09-06T01:04:44.118Z,96527.88
2023-09-06T01:07:51.811Z,96527.56
2023-09-06T01:10:53.993Z,96528.88
2023-09-06T01:14:02.575Z,96519.66
2023-09-06T01:17:04.609Z,96533.06
2023-09-06T01:20:16.668Z,96532.59
2023-09-06T01:23:32.150Z,96530.41
2023-09-06T01:26:35.346Z,96526.22
2023-09-06T01:29:37.587Z,96511.13
2023-09-06T01:32:42.176Z,96520.88
2023-09-06T01:35:44.540Z,96522.88
2023-09-06T01:38:46.620Z,96527.75
2023-09-06T01:41:50.140Z,96523.53
2023-09-06T01:44:55.163Z,96523.03
2023-09-06T01:47:56.895Z,96526.06
2023-09-06T01:50:58.571Z,96513.97
2023-09-06T01:54:03.213Z,96522.38
2023-09-06T01:57:07.965Z,96528.06
2023-09-06T02:00:28.466Z,96520.53
2023-09-06T02:03:30.207Z,96521.19
2023-09-06T02:06:31.981Z,96519.50
2023-09-06T02:09:38.775Z,96523.34
2023-09-06T02:12:41.085Z,96521.03
2023-09-06T02:15:43.228Z,96526.69
2023-09-06T02:18:45.325Z,96525.19
2023-09-06T02:21:47.076Z,96523.84
2023-09-06T02:24:50.468Z,96519.34
2023-09-06T02:27:52.523Z,96525.84
2023-09-06T02:30:55.283Z,96521.69
2023-09-06T02:33:57.482Z,96526.34
2023-09-06T02:36:59.560Z,96513.44
2023-09-06T02:40:02.666Z,96518.63
2023-09-06T02:43:06.119Z,96514.47
2023-09-06T02:46:08.767Z,96514.09
2023-09-06T02:49:14.379Z,96523.97
2023-09-06T02:52:22.393Z,96522.47
2023-09-06T02:55:25.168Z,96512.91
2023-09-06T02:58:28.075Z,96523.13
2023-09-06T03:01:31.857Z,96517.25
2023-09-06T03:04:38.951Z,96525.44
2023-09-06T03:07:43.850Z,96519.59
2023-09-06T03:10:46.522Z,96521.75
2023-09-06T03:13:56.415Z,96523.59
2023-09-06T03:16:59.275Z,96527.91
2023-09-06T03:20:01.353Z,96531.28
2023-09-06T03:23:26.057Z,96534.28
2023-09-06T03:26:34.499Z,96534.47
2023-09-06T03:29:39.726Z,96529.25
2023-09-06T03:32:46.336Z,96527.72
2023-09-06T03:35:50.499Z,96534.28
2023-09-06T03:38:58.024Z,96530.06
2023-09-06T03:42:01.918Z,96533.72
2023-09-06T03:45:04.926Z,96535.72
2023-09-06T03:48:08.476Z,96532.50
2023-09-06T03:51:14.298Z,96532.66
2023-09-06T03:54:18.526Z,96541.03
2023-09-06T03:57:21.454Z,96525.44
2023-09-06T04:00:30.653Z,96537.84
2023-09-06T04:03:43.699Z,96521.56
2023-09-06T04:06:51.124Z,96538.31
2023-09-06T04:09:57.519Z,96531.44
2023-09-06T04:12:59.618Z,96518.69
2023-09-06T04:16:02.654Z,96532.09
2023-09-06T04:19:09.724Z,96532.41
2023-09-06T04:22:14.194Z,96537.91
2023-09-06T04:25:18.182Z,96534.41
2023-09-06T04:28:22.440Z,96540.91
2023-09-06T04:31:27.088Z,96536.06
2023-09-06T04:34:31.268Z,96546.56
2023-09-06T04:37:36.512Z,96546.75
2023-09-06T04:40:39.937Z,96540.88
2023-09-06T04:43:42.383Z,96547.75
2023-09-06T04:46:45.795Z,96547.91
2023-09-06T04:49:49.385Z,96545.38
2023-09-06T04:52:55.254Z,96548.06
2023-09-06T04:55:57.209Z,96548.06
2023-09-06T04:59:04.607Z,96545.53
2023-09-06T05:02:06.769Z,96550.03
2023-09-06T05:05:09.288Z,96547.69
2023-09-06T05:08:11.630Z,96560.59
2023-09-06T05:11:16.963Z,96570.31
2023-09-06T05:14:21.107Z,96564.25
2023-09-06T05:17:24.739Z,96555.94
2023-09-06T05:20:35.148Z,96577.84
2023-09-06T05:23:41.025Z,96581.22
2023-09-06T05:26:43.079Z,96587.25
2023-09-06T05:29:46.331Z,96591.13
2023-09-06T05:32:47.989Z,96586.97
2023-09-06T05:35:49.768Z,96594.56
2023-09-06T05:38:52.431Z,96585.03
2023-09-06T05:41:57.541Z,96596.09
2023-09-06T05:44:59.999Z,96602.69
2023-09-06T05:48:03.109Z,96593.00
2023-09-06T05:51:06.293Z,96605.25
2023-09-06T05:54:10.701Z,96586.84
2023-09-06T05:57:14.029Z,96596.75
2023-09-06T06:00:17.347Z,96608.50
2023-09-06T06:03:26.570Z,96602.19
2023-09-06T06:06:29.480Z,96608.41
2023-09-06T06:09:32.112Z,96604.59
2023-09-06T06:12:34.094Z,96600.94
2023-09-06T06:15:36.120Z,96601.94
2023-09-06T06:18:38.296Z,96594.94
2023-09-06T06:21:40.985Z,96609.34
2023-09-06T06:24:47.414Z,96614.72
2023-09-06T06:27:53.086Z,96612.75
2023-09-06T06:30:54.993Z,96616.09
2023-09-06T06:33:56.912Z,96616.94
2023-09-06T06:36:59.143Z,96615.09
2023-09-06T06:40:00.850Z,96621.16
2023-09-06T06:43:02.915Z,96613.94
2023-09-06T06:46:06.647Z,96605.22
2023-09-06T06:49:10.774Z,96611.72
2023-09-06T06:52:13.071Z,96615.09
2023-09-06T06:55:15.264Z,96620.44
2023-09-06T06:58:17.877Z,96621.28
2023-09-06T07:01:22.138Z,96623.09
2023-09-06T07:04:23.910Z,96614.00
2023-09-06T07:07:27.295Z,96623.88
2023-09-06T07:10:29.373Z,96621.16
2023-09-06T07:13:31.054Z,96616.59
2023-09-06T07:16:35.028Z,96617.25
2023-09-06T07:19:37.516Z,96611.84
2023-09-06T07:22:41.102Z,96616.00
2023-09-06T07:25:48.003Z,96603.50
2023-09-06T07:28:51.134Z,96603.31
2023-09-06T07:31:53.377Z,96601.75
2023-09-06T07:34:55.979Z,96607.91
2023-09-06T07:37:58.163Z,96613.03
2023-09-06T07:41:04.663Z,96621.56
2023-09-06T07:44:07.415Z,96618.63
2023-09-06T07:47:09.220Z,96606.47
2023-09-06T07:50:11.780Z,96615.28
2023-09-06T07:53:13.505Z,96622.91
2023-09-06T07:56:15.255Z,96614.09
2023-09-06T07:59:21.901Z,96613.03
2023-09-06T08:02:24.113Z,96612.31
2023-09-06T08:05:28.900Z,96602.63
2023-09-06T08:08:31.071Z,96602.03
2023-09-06T08:11:34.423Z,96599.22
2023-09-06T08:14:37.512Z,96597.75
2023-09-06T08:17:39.701Z,96603.25
2023-09-06T08:20:41.933Z,96619.13
2023-09-06T08:23:44.961Z,96613.63
2023-09-06T08:26:50.014Z,96613.91
2023-09-06T08:29:51.897Z,96615.28
2023-09-06T08:32:54.193Z,96618.72
2023-09-06T08:35:56.424Z,96614.91
2023-09-06T08:39:00.013Z,96618.38
2023-09-06T08:42:02.639Z,96618.88
2023-09-06T08:45:10.976Z,96615.22
2023-09-06T08:48:14.138Z,96611.38
2023-09-06T08:51:17.143Z,96617.28
2023-09-06T08:54:19.367Z,96616.63
2023-09-06T08:57:22.644Z,96618.97
2023-09-06T09:00:25.338Z,96622.38
2023-09-06T09:03:27.546Z,96624.59
2023-09-06T09:06:30.659Z,96615.28
2023-09-06T09:09:32.788Z,96622.72
2023-09-06T09:12:36.399Z,96622.53
2023-09-06T09:15:38.768Z,96627.47
2023-09-06T09:18:42.372Z,96618.38
2023-09-06T09:21:46.617Z,96617.19
2023-09-06T09:24:48.364Z,96617.22
2023-09-06T09:28:00.164Z,96626.44
2023-09-06T09:31:04.020Z,96625.06
2023-09-06T09:34:06.233Z,96623.81
2023-09-06T09:37:10.182Z,96618.91
2023-09-06T09:40:19.056Z,96619.59
2023-09-06T09:43:24.628Z,96617.50
2023-09-06T09:46:30.562Z,96611.31
2023-09-06T09:49:34.974Z,96609.03
2023-09-06T09:52:40.793Z,96610.72
2023-09-06T09:55:47.750Z,96609.50
2023-09-06T09:58:52.462Z,96619.72
2023-09-06T10:01:57.449Z,96610.16
2023-09-06T10:05:02.076Z,96608.09
2023-09-06T10:08:08.506Z,96605.81
2023-09-06T10:11:11.159Z,96607.28
2023-09-06T10:14:16.129Z,96609.59
2023-09-06T10:17:18.455Z,96609.38
2023-09-06T10:20:24.412Z,96610.81
2023-09-06T10:23:32.804Z,96608.72
2023-09-06T10:26:38.285Z,96602.03
2023-09-06T10:33:05.027Z,96593.84
2023-09-06T10:36:10.043Z,96599.28
2023-09-06T10:39:15.573Z,96596.31
2023-09-06T10:45:22.039Z,96594.34
2023-09-06T10:48:24.984Z,96585.97
2023-09-06T10:51:27.235Z,96589.44
2023-09-06T10:54:39.103Z,96588.16
2023-09-06T10:57:53.419Z,96582.00
2023-09-06T11:01:14.577Z,96589.69
2023-09-06T11:04:27.652Z,96582.38
2023-09-06T11:07:49.091Z,96581.47
2023-09-06T11:11:04.491Z,96580.00
2023-09-06T11:14:06.216Z,96580.38
2023-09-06T11:17:08.944Z,96569.28
2023-09-06T11:20:21.580Z,96576.13
2023-09-06T11:23:23.613Z,96573.16
2023-09-06T11:26:27.623Z,96569.53
2023-09-06T11:29:29.714Z,96568.84
2023-09-06T11:32:31.824Z,96570.47
2023-09-06T11:35:39.596Z,96567.69
2023-09-06T11:38:45.095Z,96567.63
2023-09-06T11:41:48.867Z,96554.78
2023-09-06T11:44:54.799Z,96550.97
2023-09-06T11:48:20.605Z,96552.19
2023-09-06T11:51:25.562Z,96555.69
2023-09-06T11:54:30.092Z,96553.31
2023-09-06T11:57:32.770Z,96555.59
2023-09-06T12:00:45.576Z,96550.91
2023-09-06T12:03:48.989Z,96547.06
2023-09-06T12:06:53.408Z,96544.91
2023-09-06T12:09:59.417Z,96533.56
2023-09-06T12:13:04.196Z,96528.28
2023-09-06T12:16:08.699Z,96541.00
2023-09-06T12:19:12.981Z,96541.50
2023-09-06T12:22:18.332Z,96537.72
2023-09-06T12:25:21.143Z,96533.00
2023-09-06T12:28:24.546Z,96529.97
2023-09-06T12:31:29.186Z,96538.78
2023-09-06T12:34:31.037Z,96527.19
2023-09-06T12:37:37.360Z,96527.09
2023-09-06T12:40:43.943Z,96534.59
2023-09-06T12:43:47.452Z,96531.16
2023-09-06T12:46:49.908Z,96522.28
2023-09-06T12:49:53.090Z,96523.25
2023-09-06T12:52:56.620Z,96523.84
2023-09-06T12:55:58.267Z,96519.00
2023-09-06T12:58:59.971Z,96521.63
2023-09-06T13:02:02.897Z,96516.53
2023-09-06T13:05:05.462Z,96517.13
2023-09-06T13:08:08.387Z,96515.38
2023-09-06T13:11:10.549Z,96507.91
2023-09-06T13:14:15.960Z,96506.47
2023-09-06T13:17:18.101Z,96500.25
2023-09-06T13:20:20.397Z,96494.06
2023-09-06T13:23:22.519Z,96491.00
2023-09-06T13:26:24.591Z,96487.81
2023-09-06T13:29:26.296Z,96493.59
2023-09-06T13:32:29.850Z,96474.13
2023-09-06T13:35:31.575Z,96485.63
2023-09-06T13:38:33.934Z,96485.03
2023-09-06T13:41:38.097Z,96479.53
2023-09-06T13:44:42.818Z,96483.69
2023-09-06T13:47:45.066Z,96486.28
2023-09-06T13:50:46.746Z,96481.53
2023-09-06T13:53:50.476Z,96471.00
2023-09-06T13:56:53.237Z,96482.41
2023-09-06T13:59:55.293Z,96476.25
2023-09-06T14:02:57.083Z,96475.94
2023-09-06T14:05:59.255Z,96467.34
2023-09-06T14:09:01.411Z,96466.09
2023-09-06T14:12:03.105Z,96464.63
2023-09-06T14:15:07.010Z,96465.72
2023-09-06T14:18:09.086Z,96461.06
2023-09-06T14:21:11.356Z,96458.25
2023-09-06T14:24:16.714Z,96453.91
2023-09-06T14:27:20.262Z,96445.63
2023-09-06T14:30:21.873Z,96446.06
2023-09-06T14:33:24.438Z,96452.19
2023-09-06T14:36:27.146Z,96448.38
2023-09-06T14:39:30.183Z,96449.78
2023-09-06T14:42:33.695Z,96451.69
2023-09-06T14:45:36.895Z,96450.88
2023-09-06T14:48:38.731Z,96444.50
2023-09-06T14:51:40.862Z,96449.75
2023-09-06T14:54:43.135Z,96445.56
2023-09-06T14:57:45.223Z,96445.97
2023-09-06T15:00:47.647Z,96437.13
2023-09-06T15:03:49.940Z,96440.34
2023-09-06T15:06:59.832Z,96438.38
2023-09-06T15:10:02.055Z,96438.88
2023-09-06T15:13:06.670Z,96437.81
2023-09-06T15:16:08.681Z,96441.38
2023-09-06T15:19:11.080Z,96438.81
2023-09-06T15:22:19.693Z,96435.41
2023-09-06T15:25:27.961Z,96425.78
2023-09-06T15:28:29.838Z,96432.22
2023-09-06T15:31:32.289Z,96435.56
2023-09-06T15:34:34.505Z,96433.97
2023-09-06T15:37:36.719Z,96431.13
2023-09-06T15:40:39.112Z,96432.19
2023-09-06T15:43:41.300Z,96432.41
2023-09-06T15:46:43.446Z,96425.81
2023-09-06T15:49:46.145Z,96432.97
2023-09-06T15:52:49.128Z,96431.31
2023-09-06T15:55:51.205Z,96424.91
2023-09-06T15:58:55.976Z,96421.66
2023-09-06T16:01:58.229Z,96424.41
2023-09-06T16:05:00.247Z,96418.97
2023-09-06T16:08:02.399Z,96416.06
2023-09-06T16:11:04.921Z,96419.81
2023-09-06T16:14:06.596Z,96409.16
2023-09-06T16:17:08.783Z,96417.25
2023-09-06T16:20:12.763Z,96418.66
2023-09-06T16:23:14.965Z,96415.88
2023-09-06T16:26:17.267Z,96421.31
2023-09-06T16:29:21.133Z,96411.59
2023-09-06T16:32:23.228Z,96420.59
2023-09-06T16:35:25.352Z,96411.09
2023-09-06T16:38:27.580Z,96416.13
2023-09-06T16:41:29.367Z,96417.00
2023-09-06T16:44:31.808Z,96422.03
2023-09-06T16:47:34.567Z,96426.66
2023-09-06T16:50:45.469Z,96417.41
2023-09-06T16:53:48.018Z,96424.59
2023-09-06T16:56:49.806Z,96428.19
2023-09-06T16:59:52.622Z,96419.63
2023-09-06T17:02:56.343Z,96437.50
2023-09-06T17:05:58.788Z,96436.88
2023-09-06T17:09:01.068Z,96437.88
2023-09-06T17:12:05.788Z,96442.50
2023-09-06T17:15:20.160Z,96448.81
2023-09-06T17:18:23.605Z,96449.81
2023-09-06T17:21:26.549Z,96442.09
2023-09-06T17:24:28.597Z,96451.91
2023-09-06T17:27:31.383Z,96446.03
2023-09-06T17:30:33.522Z,96441.19
2023-09-06T17:33:35.718Z,96440.78
2023-09-06T17:36:37.983Z,96444.38
2023-09-06T17:39:41.934Z,96446.63
2023-09-06T17:42:45.012Z,96443.13
2023-09-06T17:45:48.510Z,96453.09
2023-09-06T17:48:50.319Z,96450.44
2023-09-06T17:51:53.042Z,96455.72
2023-09-06T17:54:54.740Z,96455.53
2023-09-06T17:57:57.263Z,96450.94
2023-09-06T18:01:02.747Z,96456.78
2023-09-06T18:04:06.801Z,96456.34
2023-09-06T18:07:09.019Z,96458.63
2023-09-06T18:10:11.274Z,96463.44
2023-09-06T18:13:17.498Z,96460.03
2023-09-06T18:16:20.214Z,96452.91
2023-09-06T18:19:26.967Z,96456.34
2023-09-06T18:22:28.677Z,96466.97
2023-09-06T18:25:30.808Z,96472.50
2023-09-06T18:28:33.382Z,96466.53
2023-09-06T18:31:36.286Z,96475.22
2023-09-06T18:34:38.113Z,96475.31
2023-09-06T18:37:40.086Z,96483.06
2023-09-06T18:40:43.260Z,96484.81
2023-09-06T18:43:46.348Z,96482.13
2023-09-06T18:46:48.636Z,96489.06
2023-09-06T18:49:50.809Z,96491.41
2023-09-06T18:52:53.714Z,96497.47
2023-09-06T18:55:55.855Z,96494.41
2023-09-06T18:58:59.447Z,96506.53
2023-09-06T19:02:04.984Z,96504.03
2023-09-06T19:05:08.458Z,96509.66
2023-09-06T19:08:16.314Z,96505.50
2023-09-06T19:11:19.135Z,96503.19
2023-09-06T19:14:21.446Z,96504.00
2023-09-06T19:17:23.807Z,96506.97
2023-09-06T19:20:26.078Z,96501.94
2023-09-06T19:23:27.833Z,96500.28
2023-09-06T19:26:30.060Z,96499.84
2023-09-06T19:29:32.242Z,96502.34
2023-09-06T19:32:40.813Z,96504.41
2023-09-06T19:35:44.439Z,96510.03
2023-09-06T19:38:46.755Z,96508.34
2023-09-06T19:41:48.718Z,96512.31
2023-09-06T19:44:52.305Z,96502.84
2023-09-06T19:47:54.471Z,96502.63
2023-09-06T19:50:56.554Z,96496.56
2023-09-06T19:53:59.635Z,96495.91
2023-09-06T19:57:07.950Z,96491.31
2023-09-06T20:00:12.301Z,96492.97
2023-09-06T20:03:15.091Z,96493.31
2023-09-06T20:06:18.438Z,96493.75
2023-09-06T20:09:20.586Z,96486.44
2023-09-06T20:12:23.039Z,96496.59
2023-09-06T20:15:25.112Z,96488.44
2023-09-06T20:18:27.439Z,96491.13
2023-09-06T20:21:30.137Z,96482.31
2023-09-06T20:24:32.335Z,96485.56
2023-09-06T20:27:34.163Z,96478.47
2023-09-06T20:30:39.931Z,96467.84
2023-09-06T20:33:42.059Z,96472.97
2023-09-06T20:36:43.871Z,96475.44
2023-09-06T20:39:46.552Z,96471.25
2023-09-06T20:42:49.061Z,96473.91
2023-09-06T20:45:51.285Z,96474.91
2023-09-06T20:48:53.638Z,96486.13
2023-09-06T20:51:55.737Z,96483.13
2023-09-06T20:54:57.438Z,96478.34
2023-09-06T20:57:59.358Z,96491.59
2023-09-06T21:01:12.010Z,96478.66
2023-09-06T21:04:14.436Z,96477.59
2023-09-06T21:07:16.555Z,96480.88
2023-09-06T21:10:18.583Z,96474.19
2023-09-06T21:13:20.879Z,96480.19
2023-09-06T21:16:23.104Z,96479.94
2023-09-06T21:19:24.709Z,96480.31
2023-09-06T21:22:26.615Z,96482.56
2023-09-06T21:25:28.411Z,96480.59
2023-09-06T21:28:30.272Z,96484.72
2023-09-06T21:31:33.846Z,96482.19
2023-09-06T21:34:35.677Z,96481.75
2023-09-06T21:37:37.612Z,96482.97
2023-09-06T21:40:43.622Z,96494.97
2023-09-06T21:43:45.337Z,96487.66
2023-09-06T21:46:48.472Z,96488.03
2023-09-06T21:49:50.738Z,96488.59
2023-09-06T21:52:52.901Z,96489.00
2023-09-06T21:55:55.047Z,96486.47
2023-09-06T21:58:57.864Z,96489.53
2023-09-06T22:02:00.092Z,96483.31
2023-09-06T22:05:20.916Z,96481.47
2023-09-06T22:08:41.868Z,96487.69
2023-09-06T22:12:02.028Z,96492.91
2023-09-06T22:15:08.957Z,96485.47
2023-09-06T22:18:11.229Z,96489.84
2023-09-06T22:21:13.300Z,96484.63
2023-09-06T22:24:15.339Z,96483.13
2023-09-06T22:27:17.728Z,96485.38
2023-09-06T22:30:20.530Z,96485.94
2023-09-06T22:33:22.853Z,96480.28
2023-09-06T22:36:25.411Z,96483.75
2023-09-06T22:39:27.001Z,96481.81
2023-09-06T22:42:29.068Z,96478.03
2023-09-06T22:45:31.473Z,96489.53
2023-09-06T22:48:48.328Z,96478.31
2023-09-06T22:51:56.400Z,96474.50
2023-09-06T22:54:58.195Z,96481.28
2023-09-06T22:58:00.074Z,96490.59
2023-09-06T23:01:06.836Z,96494.66
2023-09-06T23:04:08.720Z,96497.94
2023-09-06T23:07:12.116Z,96493.91
2023-09-06T23:10:17.386Z,96491.94
2023-09-06T23:13:22.545Z,96499.19
2023-09-06T23:16:24.819Z,96496.03
2023-09-06T23:19:30.318Z,96492.88
2023-09-06T23:22:36.681Z,96488.72
2023-09-06T23:25:42.369Z,96490.91
2023-09-06T23:28:46.731Z,96494.19
2023-09-06T23:31:55.890Z,96495.72
2023-09-06T23:34:59.135Z,96494.09
2023-09-06T23:38:07.751Z,96502.50
2023-09-06T23:41:12.728Z,96499.34
2023-09-06T23:44:14.772Z,96506.97
2023-09-06T23:47:17.484Z,96493.84
2023-09-06T23:50:20.028Z,96492.75
2023-09-06T23:53:26.254Z,96484.66
2023-09-06T23:56:28.362Z,96488.38
2023-09-06T23:59:30.421Z,96489.38
